Time;durP1;ratioP1;P1;durP2;ratioP2;P2;SDS_P1;SDS_P2;PMS_P1;PMS_P2;Temp;Humidity;BMP_temperature;BMP_pressure;BME280_temperature;BME280_humidity;BME280_pressure;Samples;Min_cycle;Max_cycle;Signal;HPM_P1;HPM_P2
2023/05/21 00:02:21;;;;;;;5.30;4.80;;;;;;;19.59;55.72;97026.53;10407892;28;20042;-57
2023/05/21 00:07:40;;;;;;;5.25;4.38;;;;;;;19.59;55.84;97027.31;10375995;28;20104;-58
2023/05/21 00:13:00;;;;;;;5.32;4.82;;;;;;;19.59;55.76;97024.59;10395897;28;20041;-57
2023/05/21 00:18:21;;;;;;;4.95;4.45;;;;;;;19.56;55.60;97020.66;10405829;28;20072;-57
2023/05/21 00:23:41;;;;;;;4.97;4.43;;;;;;;19.58;55.72;97019.50;10385582;28;20092;-57
2023/05/21 00:29:01;;;;;;;5.07;4.57;;;;;;;19.58;55.73;97020.31;10407029;28;20038;-57
2023/05/21 00:34:21;;;;;;;4.85;4.43;;;;;;;19.56;55.72;97012.53;10415029;28;20042;-58
2023/05/21 00:39:41;;;;;;;4.50;4.10;;;;;;;19.57;55.80;97016.03;10412224;28;20428;-57
2023/05/21 00:45:03;;;;;;;4.85;4.35;;;;;;;19.56;55.69;97014.41;10396947;28;20038;-57
2023/05/21 00:50:23;;;;;;;5.13;4.63;;;;;;;19.55;55.79;97013.63;10416974;28;20497;-57
2023/05/21 00:55:43;;;;;;;4.78;4.38;;;;;;;19.54;55.78;97003.94;10419702;28;20076;-58
2023/05/21 01:01:05;;;;;;;4.78;4.38;;;;;;;19.54;55.74;97003.94;10403476;28;20038;-47
2023/05/21 01:06:25;;;;;;;4.63;4.22;;;;;;;19.53;55.71;97005.06;10432757;28;20490;-46
2023/05/21 01:11:47;;;;;;;4.88;4.38;;;;;;;19.54;55.73;96995.03;10417811;28;20104;-45
2023/05/21 01:17:09;;;;;;;4.38;3.97;;;;;;;19.53;55.74;96991.53;10413892;28;20034;-46
2023/05/21 01:22:31;;;;;;;4.68;4.28;;;;;;;19.54;55.68;96997.72;10431589;28;20049;-47
2023/05/21 01:27:51;;;;;;;5.00;4.60;;;;;;;19.54;55.89;96979.63;10396646;28;20045;-45
2023/05/21 01:33:19;;;;;;;4.78;4.30;;;;;;;19.53;55.70;96974.53;10405166;28;20490;-47
2023/05/21 01:38:48;;;;;;;4.93;4.43;;;;;;;19.52;55.77;96967.53;10381298;28;20038;-48
2023/05/21 01:44:09;;;;;;;4.60;4.15;;;;;;;19.51;55.83;96972.16;10413750;28;20402;-47
2023/05/21 01:49:29;;;;;;;5.20;4.60;;;;;;;19.51;55.70;96964.03;10406057;28;20049;-47
2023/05/21 01:54:49;;;;;;;4.20;3.80;;;;;;;19.51;55.64;96980.25;10407236;28;20045;-46
2023/05/21 02:00:10;;;;;;;4.70;4.30;;;;;;;19.50;55.76;96975.16;10411620;28;20052;-46
2023/05/21 02:05:34;;;;;;;4.32;3.90;;;;;;;19.50;55.69;96973.28;10403841;28;20052;-47
2023/05/21 02:10:54;;;;;;;4.75;4.28;;;;;;;19.51;55.74;96977.56;10392724;28;20042;-46
2023/05/21 02:16:14;;;;;;;4.50;4.10;;;;;;;19.50;55.71;96977.88;10400731;28;20061;-47
2023/05/21 02:21:34;;;;;;;4.38;3.97;;;;;;;19.49;55.67;96981.69;10408653;28;20053;-46
2023/05/21 02:26:54;;;;;;;4.55;4.15;;;;;;;19.49;55.77;96979.78;10393821;28;20124;-46
2023/05/21 02:32:14;;;;;;;4.72;4.13;;;;;;;19.47;55.77;96965.81;10404686;28;20572;-46
2023/05/21 02:37:34;;;;;;;4.13;3.78;;;;;;;19.47;55.74;96982.00;10428929;28;20049;-47
2023/05/21 02:42:53;;;;;;;4.30;3.90;;;;;;;19.47;55.75;96979.31;10414705;28;20548;-47
2023/05/21 02:48:14;;;;;;;4.32;3.92;;;;;;;19.47;55.74;96973.91;10410057;28;20042;-48
2023/05/21 02:53:35;;;;;;;4.65;4.25;;;;;;;19.47;55.74;96976.59;10419736;28;20099;-45
2023/05/21 02:58:55;;;;;;;4.53;4.13;;;;;;;19.46;55.65;96975.00;10423501;28;20069;-46
2023/05/21 03:04:20;;;;;;;4.43;4.03;;;;;;;19.46;55.72;96974.22;10414232;28;20383;-47
2023/05/21 03:09:43;;;;;;;4.38;3.83;;;;;;;19.46;55.59;96966.91;10391036;28;20420;-47
2023/05/21 03:15:03;;;;;;;4.28;3.83;;;;;;;19.44;55.74;96965.63;10393861;28;20180;-48
2023/05/21 03:20:22;;;;;;;4.30;4.00;;;;;;;19.45;55.72;96959.13;10397344;28;20048;-46
2023/05/21 03:25:42;;;;;;;4.30;3.90;;;;;;;19.44;55.79;96962.94;10427147;28;20049;-46
2023/05/21 03:31:02;;;;;;;4.57;3.97;;;;;;;19.45;55.62;96967.25;10404972;28;20046;-46
2023/05/21 03:36:34;;;;;;;4.07;3.78;;;;;;;19.43;55.64;96964.06;10404659;28;20418;-49
2023/05/21 03:41:55;;;;;;;4.03;3.67;;;;;;;19.44;55.68;96966.44;10400967;28;20052;-48
2023/05/21 03:47:35;;;;;;;3.95;3.55;;;;;;;19.44;55.63;96962.94;10427000;28;20414;-46
2023/05/21 03:52:56;;;;;;;4.00;3.70;;;;;;;19.42;55.70;96971.34;10387140;28;20053;-46
2023/05/21 03:58:16;;;;;;;4.45;3.88;;;;;;;19.43;55.74;96972.16;10387990;28;20510;-46
2023/05/21 04:03:35;;;;;;;3.90;3.60;;;;;;;19.42;55.65;96965.94;10424618;28;20034;-46
2023/05/21 04:08:55;;;;;;;4.00;3.70;;;;;;;19.44;55.75;96963.72;10415291;28;20041;-49
2023/05/21 04:14:14;;;;;;;4.00;3.60;;;;;;;19.46;55.63;96971.50;10425433;28;20053;-46
2023/05/21 04:19:34;;;;;;;4.50;4.10;;;;;;;19.49;55.58;96968.97;10406250;28;20050;-46
2023/05/21 04:24:58;;;;;;;4.03;3.63;;;;;;;19.49;55.63;96966.28;10408811;28;20046;-45
2023/05/21 04:30:22;;;;;;;4.10;3.80;;;;;;;19.51;55.64;96980.25;10392661;28;20100;-46
2023/05/21 04:35:43;;;;;;;3.63;3.33;;;;;;;19.49;55.71;96971.69;10418977;28;20113;-47
2023/05/21 04:41:03;;;;;;;4.22;3.92;;;;;;;19.47;55.75;96973.91;10433563;28;20401;-46
2023/05/21 04:46:25;;;;;;;3.58;3.28;;;;;;;19.47;55.91;96973.91;10433642;28;20041;-48
2023/05/21 04:51:48;;;;;;;4.03;3.72;;;;;;;19.47;55.84;96975.81;10400929;28;20046;-46
2023/05/21 04:57:07;;;;;;;3.80;3.50;;;;;;;19.47;55.73;96968.50;10395196;28;20100;-46
2023/05/21 05:02:27;;;;;;;4.10;3.80;;;;;;;19.47;55.94;96967.72;10432191;28;20049;-49
2023/05/21 05:07:47;;;;;;;3.33;3.03;;;;;;;19.47;55.93;96978.53;10406056;28;20042;-46
2023/05/21 05:13:06;;;;;;;3.28;3.08;;;;;;;19.48;55.86;96970.09;10391126;28;20045;-47
2023/05/21 05:18:28;;;;;;;2.80;2.60;;;;;;;19.47;55.97;96976.59;10381629;28;20197;-47
2023/05/21 05:23:48;;;;;;;3.08;2.78;;;;;;;19.48;56.04;96975.50;10402308;28;20402;-47
2023/05/21 05:29:08;;;;;;;3.17;2.88;;;;;;;19.47;56.08;96968.50;10391522;28;20044;-47
2023/05/21 05:34:28;;;;;;;3.00;2.80;;;;;;;19.48;56.02;96975.50;10419997;28;20048;-47
2023/05/21 05:39:47;;;;;;;3.75;3.45;;;;;;;19.47;56.12;96968.50;10417127;28;20045;-46
2023/05/21 05:45:08;;;;;;;2.95;2.75;;;;;;;19.49;56.07;96970.88;10406171;28;20045;-46
2023/05/21 05:50:27;;;;;;;2.92;2.72;;;;;;;19.49;56.13;96960.88;10394665;28;20053;-48
2023/05/21 05:55:47;;;;;;;11.35;9.90;;;;;;;19.47;56.39;96960.41;10395814;28;20042;-46
2023/05/21 06:01:07;;;;;;;14.60;11.50;;;;;;;19.44;57.02;96957.53;10398197;28;20050;-48
2023/05/21 06:06:27;;;;;;;11.13;9.82;;;;;;;19.43;56.81;96972.16;10416474;28;20049;-49
2023/05/21 06:11:46;;;;;;;12.15;10.85;;;;;;;19.41;56.49;96967.09;10421787;28;20486;-50
2023/05/21 06:17:06;;;;;;;11.40;10.23;;;;;;;19.41;56.41;96966.28;10384754;28;20041;-47
2023/05/21 06:22:26;;;;;;;13.15;11.52;;;;;;;19.39;56.48;96972.00;10425298;28;20456;-49
2023/05/21 06:27:45;;;;;;;13.05;11.07;;;;;;;19.39;56.41;96969.31;10411605;28;20410;-47
2023/05/21 06:33:11;;;;;;;12.55;10.82;;;;;;;19.39;56.18;96973.94;10410693;28;20033;-47
2023/05/21 06:38:31;;;;;;;12.27;10.63;;;;;;;19.39;56.28;96971.22;10428332;28;20068;-48
2023/05/21 06:43:52;;;;;;;11.85;10.45;;;;;;;19.40;56.33;96962.00;10404393;28;20096;-49
2023/05/21 06:49:45;;;;;;;13.25;10.35;;;;;;;19.40;56.20;96962.00;10400467;28;20053;-47
2023/05/21 06:55:05;;;;;;;10.63;9.52;;;;;;;19.40;56.39;96967.41;10407328;28;20056;-48
2023/05/21 07:00:43;;;;;;;12.25;10.73;;;;;;;19.40;56.53;96970.88;10417017;28;20494;-49
2023/05/21 07:06:03;;;;;;;12.98;10.75;;;;;;;19.40;56.40;96973.59;10394395;28;20390;-51
2023/05/21 07:11:27;;;;;;;12.05;10.85;;;;;;;19.41;56.72;96969.00;10427454;28;20041;-47
2023/05/21 07:16:47;;;;;;;12.48;10.77;;;;;;;19.40;57.09;96978.97;10407798;28;20041;-51
2023/05/21 07:22:07;;;;;;;12.52;11.18;;;;;;;19.41;56.95;96972.47;10389580;28;20072;-52
2023/05/21 07:27:27;;;;;;;11.63;10.18;;;;;;;19.42;56.75;96965.16;10418106;28;20431;-49
2023/05/21 07:32:48;;;;;;;11.65;10.35;;;;;;;19.42;57.00;96978.66;10423519;28;20041;-47
2023/05/21 07:38:07;;;;;;;11.43;10.27;;;;;;;19.43;57.20;96961.38;10412649;28;20498;-47
2023/05/21 07:43:27;;;;;;;11.52;10.13;;;;;;;19.42;57.36;96965.94;10425724;28;20048;-49
2023/05/21 07:48:47;;;;;;;10.45;9.40;;;;;;;19.42;57.00;96965.94;10421716;28;20038;-51
2023/05/21 07:54:08;;;;;;;11.90;9.95;;;;;;;19.41;56.82;96967.09;10398167;28;20045;-50
2023/05/21 07:59:29;;;;;;;12.85;9.75;;;;;;;19.43;57.18;96972.16;10424683;28;20041;-49
2023/05/21 08:04:48;;;;;;;10.68;9.43;;;;;;;19.42;57.15;96965.94;10398636;28;20050;-48
2023/05/21 08:10:08;;;;;;;12.10;10.00;;;;;;;19.40;57.09;96960.06;10403888;28;20474;-46
2023/05/21 08:15:27;;;;;;;10.35;9.23;;;;;;;19.40;57.19;96962.78;10406258;28;20064;-47
2023/05/21 08:20:47;;;;;;;12.73;9.38;;;;;;;19.40;57.28;96968.19;10420742;28;20049;-48
2023/05/21 08:26:09;;;;;;;12.32;10.02;;;;;;;19.40;57.69;96957.38;10403115;28;20053;-47
2023/05/21 08:31:31;;;;;;;208.27;50.55;;;;;;;19.43;59.06;96961.38;10399582;28;20124;-47
2023/05/21 08:36:52;;;;;;;138.52;34.42;;;;;;;19.44;59.47;96958.31;10402467;28;20041;-49
2023/05/21 08:42:46;;;;;;;78.07;23.50;;;;;;;19.46;59.41;96956.09;10411870;28;20513;-47
2023/05/21 08:48:25;;;;;;;55.65;20.30;;;;;;;19.49;59.65;96954.69;10410620;28;20045;-50
2023/05/21 08:53:45;;;;;;;49.65;19.42;;;;;;;19.50;59.54;96948.97;10421435;28;20045;-48
2023/05/21 08:59:07;;;;;;;42.47;15.80;;;;;;;19.51;59.73;96953.25;10411895;28;20049;-47
2023/05/21 09:04:30;;;;;;;43.53;16.55;;;;;;;19.51;60.03;96955.94;10391018;28;20068;-46
2023/05/21 09:10:02;;;;;;;24.35;13.60;;;;;;;19.50;59.92;96956.25;10406597;28;20045;-47
2023/05/21 09:15:22;;;;;;;22.27;11.95;;;;;;;19.52;59.83;96954.03;10394841;28;20046;-49
2023/05/21 09:20:42;;;;;;;23.00;12.13;;;;;;;19.52;59.44;96954.84;10431045;28;20045;-47
2023/05/21 09:26:09;;;;;;;19.95;11.32;;;;;;;19.53;59.94;96955.63;10429212;28;20034;-46
2023/05/21 09:31:29;;;;;;;16.95;10.30;;;;;;;19.53;59.38;96959.13;10422622;28;20096;-47
2023/05/21 09:36:49;;;;;;;16.00;10.63;;;;;;;19.52;59.80;96971.06;10419895;28;20096;-46
2023/05/21 09:42:09;;;;;;;14.85;9.63;;;;;;;19.53;59.63;96966.44;10390845;28;20414;-47
2023/05/21 09:47:28;;;;;;;14.52;9.40;;;;;;;19.51;59.89;96961.34;10408972;28;20041;-46
2023/05/21 09:52:51;;;;;;;14.25;9.18;;;;;;;19.53;59.52;96951.00;10417103;28;20505;-46
2023/05/21 09:58:11;;;;;;;18.17;9.70;;;;;;;19.56;59.76;96950.38;10430341;28;20037;-51
2023/05/21 10:03:30;;;;;;;12.38;8.65;;;;;;;19.56;60.00;96950.38;10405707;28;20159;-48
2023/05/21 10:08:53;;;;;;;18.23;9.68;;;;;;;19.56;59.35;96961.19;10397004;28;20073;-50
2023/05/21 10:14:24;;;;;;;15.98;9.80;;;;;;;19.53;59.30;96955.63;10395525;28;20403;-47
2023/05/21 10:19:45;;;;;;;25.13;14.20;;;;;;;19.50;58.81;96946.25;10389625;28;20384;-47
2023/05/21 10:25:06;;;;;;;46.03;25.75;;;;;;;19.52;61.37;96949.44;10389496;28;20096;-46
2023/05/21 10:30:26;;;;;;;51.05;25.55;;;;;;;19.60;61.67;96938.91;10428065;28;20041;-47
2023/05/21 10:35:49;;;;;;;33.42;19.65;;;;;;;19.65;61.79;96934.13;10415350;28;20394;-45
2023/05/21 10:41:10;;;;;;;29.65;16.17;;;;;;;19.66;61.45;96919.53;10428624;28;20046;-47
2023/05/21 10:46:45;;;;;;;21.02;12.50;;;;;;;19.68;60.62;96935.41;10414949;28;20041;-46
2023/05/21 10:52:18;;;;;;;16.90;11.15;;;;;;;19.65;59.83;96922.53;10417916;28;20068;-47
2023/05/21 10:58:16;;;;;;;16.50;9.90;;;;;;;19.61;59.32;96924.31;10394520;28;20049;-47
2023/05/21 11:03:35;;;;;;;10.07;8.70;;;;;;;19.57;57.58;96932.25;10350456;28;20050;-47
2023/05/21 11:08:55;;;;;;;14.15;8.65;;;;;;;19.60;58.06;96920.00;10387619;28;20494;-52
2023/05/21 11:14:41;;;;;;;20.02;8.35;;;;;;;19.58;57.79;96917.59;10392430;28;20065;-55
2023/05/21 11:20:12;;;;;;;29.92;9.40;;;;;;;19.56;58.07;96909.84;10411713;28;20050;-58
2023/05/21 11:25:31;;;;;;;21.30;10.57;;;;;;;19.54;57.09;96919.38;10414961;28;20418;-57
2023/05/21 11:31:24;;;;;;;18.23;10.07;;;;;;;19.55;58.15;96919.06;10426440;28;20041;-56
2023/05/21 11:36:48;;;;;;;15.00;10.13;;;;;;;19.55;57.90;96918.25;10365417;28;20127;-56
2023/05/21 11:42:08;;;;;;;19.58;14.32;;;;;;;19.53;57.57;96902.38;10398002;28;20072;-49
2023/05/21 11:47:28;;;;;;;16.70;11.32;;;;;;;19.53;57.36;96907.78;10400955;28;20052;-52
2023/05/21 11:52:48;;;;;;;13.93;10.00;;;;;;;19.52;56.89;96905.38;10382749;28;20112;-48
2023/05/21 11:58:10;;;;;;;12.32;9.00;;;;;;;19.51;56.73;96901.91;10387001;28;20042;-50
2023/05/21 12:03:33;;;;;;;10.10;8.02;;;;;;;19.51;56.46;96901.91;10425746;28;20041;-51
2023/05/21 12:08:56;;;;;;;12.95;8.20;;;;;;;19.51;56.40;96898.41;10425860;28;20042;-52
2023/05/21 12:14:16;;;;;;;7.68;6.60;;;;;;;19.51;56.38;96898.41;10425919;28;20046;-48
2023/05/21 12:19:36;;;;;;;16.42;8.95;;;;;;;19.52;56.42;96894.56;10412754;28;20092;-48
2023/05/21 12:24:57;;;;;;;12.35;7.78;;;;;;;19.51;56.26;96893.00;10418632;28;20034;-50
2023/05/21 12:30:16;;;;;;;14.73;7.80;;;;;;;19.52;56.31;96887.28;10404192;28;20042;-48
2023/05/21 12:35:36;;;;;;;10.82;7.60;;;;;;;19.53;56.05;96886.16;10385306;28;20096;-51
2023/05/21 12:41:03;;;;;;;9.70;7.00;;;;;;;19.56;55.62;96890.94;10414379;28;20057;-51
2023/05/21 12:46:22;;;;;;;7.20;6.28;;;;;;;19.59;54.66;96883.28;10414699;28;20406;-47
2023/05/21 12:51:44;;;;;;;8.35;6.28;;;;;;;19.58;54.54;96889.81;10415146;28;20041;-48
2023/05/21 12:57:15;;;;;;;9.70;6.45;;;;;;;19.55;54.57;96883.94;10419847;28;20050;-47
2023/05/21 13:02:39;;;;;;;8.38;6.65;;;;;;;19.55;54.58;96873.13;10398766;28;20049;-50
2023/05/21 13:07:59;;;;;;;11.18;6.63;;;;;;;19.56;54.38;96874.72;10416768;28;20033;-49
2023/05/21 13:13:19;;;;;;;8.73;6.57;;;;;;;19.56;54.33;96863.09;10392082;28;20095;-50
2023/05/21 13:18:39;;;;;;;8.38;6.50;;;;;;;19.56;54.61;96869.31;10399718;28;20038;-51
2023/05/21 13:23:59;;;;;;;7.90;7.10;;;;;;;19.61;54.69;96871.03;10431921;28;20044;-50
2023/05/21 13:29:18;;;;;;;7.50;6.78;;;;;;;19.61;54.88;96864.84;10413807;28;20469;-50
2023/05/21 13:34:38;;;;;;;10.25;6.63;;;;;;;19.60;54.84;96866.75;10391789;28;20065;-48
2023/05/21 13:39:58;;;;;;;6.90;5.63;;;;;;;19.63;54.53;96858.00;10406104;28;20493;-48
2023/05/21 13:45:19;;;;;;;7.43;6.65;;;;;;;19.65;53.86;96849.56;10417517;28;20045;-48
2023/05/21 13:50:38;;;;;;;7.35;6.18;;;;;;;19.75;51.73;96843.84;10424643;28;20046;-49
2023/05/21 13:55:57;;;;;;;7.45;6.65;;;;;;;19.81;51.15;96849.84;10403013;28;20087;-50
2023/05/21 14:01:17;;;;;;;7.55;5.63;;;;;;;19.83;50.31;96845.69;10393451;28;20506;-49
2023/05/21 14:06:37;;;;;;;8.43;5.45;;;;;;;19.85;48.62;96838.06;10418048;28;20049;-49
2023/05/21 14:11:57;;;;;;;8.75;5.60;;;;;;;19.91;48.25;96841.38;10407247;28;20100;-50
2023/05/21 14:17:17;;;;;;;6.47;5.03;;;;;;;19.89;48.20;96844.41;10389873;28;20414;-49
2023/05/21 14:22:37;;;;;;;5.63;5.13;;;;;;;19.90;48.60;96840.59;10389445;28;20514;-48
2023/05/21 14:27:56;;;;;;;5.85;5.20;;;;;;;19.92;48.77;96848.38;10407292;28;20049;-48
2023/05/21 14:33:15;;;;;;;9.02;5.55;;;;;;;19.91;49.12;96842.16;10403407;28;20053;-51
2023/05/21 14:38:35;;;;;;;7.47;5.60;;;;;;;19.92;49.62;96845.69;10409054;28;20049;-50
2023/05/21 14:43:54;;;;;;;8.10;5.32;;;;;;;19.90;49.75;96840.59;10416893;28;20045;-50
2023/05/21 14:49:14;;;;;;;8.25;5.97;;;;;;;19.91;50.25;96836.75;10403646;28;20049;-49
2023/05/21 14:54:35;;;;;;;8.75;5.55;;;;;;;19.90;50.66;96832.47;10427654;28;20037;-55
2023/05/21 14:59:54;;;;;;;7.75;5.70;;;;;;;19.93;50.47;96834.56;10398121;28;20049;-47
2023/05/21 15:05:13;;;;;;;6.00;5.50;;;;;;;19.97;50.29;96831.97;10426681;28;20486;-49
2023/05/21 15:10:33;;;;;;;5.85;5.20;;;;;;;19.99;50.25;96834.34;10402090;28;20050;-50
2023/05/21 15:15:52;;;;;;;9.43;5.63;;;;;;;20.01;50.12;96834.81;10418047;28;20556;-50
2023/05/21 15:21:11;;;;;;;6.88;5.72;;;;;;;19.99;50.19;96835.13;10410051;28;20048;-52
2023/05/21 15:26:30;;;;;;;7.30;6.07;;;;;;;19.97;49.92;96828.47;10393154;28;20041;-51
2023/05/21 15:31:50;;;;;;;9.23;5.72;;;;;;;19.97;50.02;96834.66;10427049;28;20041;-50
2023/05/21 15:37:10;;;;;;;7.50;6.00;;;;;;;20.00;50.01;96827.84;10397999;28;20045;-49
2023/05/21 15:42:30;;;;;;;6.60;5.13;;;;;;;20.04;49.42;96828.75;10426483;28;20041;-46
2023/05/21 15:47:50;;;;;;;9.50;5.82;;;;;;;20.03;49.63;96819.06;10425710;28;20079;-50
2023/05/21 15:53:09;;;;;;;6.00;5.40;;;;;;;20.04;49.72;96823.34;10382183;28;20050;-47
2023/05/21 15:58:30;;;;;;;8.10;6.22;;;;;;;20.05;49.29;96814.09;10399010;28;20053;-49
2023/05/21 16:03:49;;;;;;;6.57;5.85;;;;;;;20.05;48.96;96811.41;10389118;28;20453;-49
2023/05/21 16:09:08;;;;;;;6.88;6.18;;;;;;;20.07;48.10;96801.06;10386829;28;20042;-48
2023/05/21 16:14:28;;;;;;;7.35;5.85;;;;;;;20.09;48.12;96798.81;10409865;28;20038;-51
2023/05/21 16:19:48;;;;;;;33.55;12.70;;;;;;;20.07;47.86;96801.06;10399912;28;20095;-50
2023/05/21 16:25:07;;;;;;;19.13;9.85;;;;;;;20.07;48.06;96801.88;10434007;28;20087;-49
2023/05/21 16:30:28;;;;;;;46.08;26.58;;;;;;;20.07;47.89;96806.47;10433103;28;20091;-49
2023/05/21 16:35:47;;;;;;;26.92;15.38;;;;;;;20.08;48.35;96803.44;10421306;28;20493;-60
2023/05/21 16:41:07;;;;;;;26.42;13.18;;;;;;;20.06;49.39;96805.69;10402080;28;20045;-54
2023/05/21 16:46:26;;;;;;;14.60;10.32;;;;;;;20.05;49.28;96804.09;10401404;28;20436;-46
2023/05/21 16:51:46;;;;;;;14.93;9.88;;;;;;;20.09;49.79;96801.50;10407937;28;20054;-50
2023/05/21 16:57:05;;;;;;;23.50;14.82;;;;;;;20.10;49.67;96805.81;10432920;28;20052;-46
2023/05/21 17:02:24;;;;;;;15.55;10.23;;;;;;;20.08;47.68;96810.75;10413951;28;20622;-47
2023/05/21 17:07:44;;;;;;;7.88;6.75;;;;;;;20.07;45.83;96812.69;10418731;28;20405;-52
2023/05/21 17:13:03;;;;;;;9.82;6.20;;;;;;;20.04;46.16;96813.31;10403469;28;20037;-50
2023/05/21 17:18:23;;;;;;;11.07;5.70;;;;;;;20.04;46.71;96805.22;10392052;28;20045;-46
2023/05/21 17:23:42;;;;;;;8.05;6.15;;;;;;;20.02;46.27;96806.66;10418888;28;20425;-48
2023/05/21 17:29:02;;;;;;;7.60;5.85;;;;;;;20.00;46.64;96814.31;10415159;28;20042;-46
2023/05/21 17:34:24;;;;;;;8.80;6.00;;;;;;;20.02;47.43;96823.69;10417726;28;20048;-49
2023/05/21 17:39:44;;;;;;;13.70;9.48;;;;;;;20.00;48.46;96831.31;10404950;28;20402;-46
2023/05/21 17:45:04;;;;;;;15.05;8.10;;;;;;;20.00;49.79;96822.44;10410013;28;20049;-53
2023/05/21 17:50:24;;;;;;;10.48;7.28;;;;;;;20.00;50.77;96827.84;10414550;28;20072;-57
2023/05/21 17:55:44;;;;;;;13.05;7.75;;;;;;;19.98;51.24;96824.66;10430275;28;20049;-56
2023/05/21 18:01:03;;;;;;;11.00;7.22;;;;;;;19.97;51.96;96836.59;10431126;28;20129;-56
2023/05/21 18:06:23;;;;;;;12.50;7.57;;;;;;;19.96;52.59;96835.81;10419337;28;20096;-47
2023/05/21 18:11:43;;;;;;;10.32;8.38;;;;;;;19.95;52.60;96826.91;10390191;28;20046;-47
2023/05/21 18:17:03;;;;;;;12.48;7.93;;;;;;;19.94;52.70;96830.72;10395701;28;20045;-47
2023/05/21 18:22:23;;;;;;;11.20;7.57;;;;;;;19.93;52.78;96831.84;10400414;28;20049;-57
2023/05/21 18:27:42;;;;;;;9.38;7.30;;;;;;;19.92;52.72;96827.53;10406213;28;20080;-58
2023/05/21 18:33:01;;;;;;;9.63;7.60;;;;;;;19.91;52.47;96823.25;10389278;28;20414;-46
2023/05/21 18:38:21;;;;;;;11.55;8.07;;;;;;;19.91;52.80;96822.44;10402483;28;20038;-46
2023/05/21 18:43:41;;;;;;;9.73;8.45;;;;;;;19.92;53.23;96822.13;10428953;28;20045;-47
2023/05/21 18:49:00;;;;;;;6.93;4.93;;;;;;;19.94;53.49;96833.41;10399782;28;20041;-46
2023/05/21 18:54:20;;;;;;;8.82;7.10;;;;;;;19.93;53.05;96831.84;10415209;28;20037;-49
2023/05/21 18:59:39;;;;;;;10.88;7.75;;;;;;;19.91;53.48;96834.06;10415365;28;20042;-47
2023/05/21 19:05:01;;;;;;;9.63;7.20;;;;;;;19.93;53.78;96839.13;10394056;28;20038;-47
2023/05/21 19:10:21;;;;;;;12.52;5.78;;;;;;;19.93;53.83;96839.97;10405842;28;20044;-56
2023/05/21 19:15:45;;;;;;;10.55;7.32;;;;;;;19.93;54.00;96847.25;10393258;28;20053;-46
2023/05/21 19:21:05;;;;;;;8.95;7.13;;;;;;;19.92;53.34;96848.38;10393477;28;20054;-46
2023/05/21 19:26:25;;;;;;;8.35;6.68;;;;;;;19.87;52.13;96846.63;10420575;28;20057;-47
2023/05/21 19:31:45;;;;;;;9.10;7.40;;;;;;;19.86;52.70;96850.47;10402655;28;20525;-54
2023/05/21 19:37:05;;;;;;;10.90;7.20;;;;;;;19.87;52.90;96852.03;10421793;28;20486;-54
2023/05/21 19:42:25;;;;;;;6.85;5.78;;;;;;;19.88;53.35;96853.66;10413666;28;20056;-54
2023/05/21 19:47:45;;;;;;;10.40;7.28;;;;;;;19.88;53.51;96847.44;10426772;28;20041;-55
2023/05/21 19:53:05;;;;;;;11.45;7.70;;;;;;;19.89;53.60;96851.72;10411742;28;20088;-58
2023/05/21 19:58:28;;;;;;;9.73;7.43;;;;;;;19.89;53.72;96852.50;10388874;28;20049;-47
2023/05/21 20:03:48;;;;;;;10.65;7.68;;;;;;;19.89;53.79;96855.22;10406659;28;20494;-49
2023/05/21 20:09:09;;;;;;;9.07;7.28;;;;;;;19.91;54.04;96858.38;10419179;28;20048;-46
2023/05/21 20:14:32;;;;;;;9.05;7.38;;;;;;;19.95;54.21;96858.53;10398766;28;20092;-47
2023/05/21 20:19:51;;;;;;;7.45;6.38;;;;;;;20.00;54.26;96862.97;10424307;28;20498;-49
2023/05/21 20:25:10;;;;;;;11.07;7.20;;;;;;;20.02;54.31;96871.56;10425612;28;20510;-49
2023/05/21 20:30:31;;;;;;;9.85;7.88;;;;;;;20.02;54.33;96864.25;10424992;28;20044;-45
2023/05/21 20:35:51;;;;;;;8.60;7.68;;;;;;;20.04;54.57;96869.31;10400236;28;20513;-46
2023/05/21 20:41:11;;;;;;;11.35;7.57;;;;;;;20.05;54.47;96863.59;10388559;28;20046;-47
2023/05/21 20:46:31;;;;;;;12.70;7.57;;;;;;;20.06;54.65;96870.59;10420796;28;20516;-50
2023/05/21 20:51:50;;;;;;;9.63;7.00;;;;;;;20.06;54.59;96865.16;10415234;28;20128;-46
2023/05/21 20:57:10;;;;;;;7.95;6.30;;;;;;;20.07;54.69;96866.78;10419381;28;20041;-49
2023/05/21 21:02:29;;;;;;;7.82;7.03;;;;;;;20.08;54.78;96870.25;10413283;28;20041;-46
2023/05/21 21:07:48;;;;;;;8.20;6.53;;;;;;;20.09;54.77;96869.13;10381422;28;20050;-47
2023/05/21 21:13:08;;;;;;;5.82;4.43;;;;;;;20.06;54.69;96875.19;10403975;28;20042;-48
2023/05/21 21:18:28;;;;;;;7.38;6.57;;;;;;;20.04;54.71;96863.91;10432135;28;20037;-46
2023/05/21 21:23:47;;;;;;;8.48;6.85;;;;;;;20.03;54.74;96867.72;10419221;28;20386;-46
2023/05/21 21:29:07;;;;;;;7.65;6.85;;;;;;;20.02;54.89;96866.16;10418947;28;20052;-49
2023/05/21 21:34:26;;;;;;;8.23;6.90;;;;;;;20.02;55.05;96860.75;10397552;28;20041;-46
2023/05/21 21:39:46;;;;;;;7.93;5.95;;;;;;;20.01;55.03;96867.25;10429324;28;20053;-50
2023/05/21 21:45:06;;;;;;;8.95;6.45;;;;;;;20.00;55.09;96861.06;10397279;28;20048;-45
2023/05/21 21:50:25;;;;;;;7.40;6.60;;;;;;;20.00;55.19;96862.97;10396495;28;20113;-47
2023/05/21 21:55:44;;;;;;;9.02;6.70;;;;;;;20.00;55.19;96868.41;10393948;28;20038;-48
2023/05/21 22:01:04;;;;;;;7.05;6.35;;;;;;;19.99;55.29;96864.88;10395162;28;20396;-48
2023/05/21 22:06:24;;;;;;;7.10;6.35;;;;;;;20.00;55.20;96863.78;10390538;28;20038;-47
2023/05/21 22:11:43;;;;;;;6.95;6.15;;;;;;;19.99;55.33;96864.88;10413979;28;20068;-47
2023/05/21 22:17:06;;;;;;;7.28;6.15;;;;;;;20.00;55.33;96865.69;10398621;28;20034;-48
2023/05/21 22:22:26;;;;;;;8.63;6.07;;;;;;;19.98;55.33;96863.31;10429648;28;20056;-47
2023/05/21 22:27:46;;;;;;;6.82;6.07;;;;;;;20.00;55.33;96866.47;10401644;28;20042;-47
2023/05/21 22:33:05;;;;;;;6.95;5.90;;;;;;;19.99;55.34;96862.16;10425673;28;20103;-48
2023/05/21 22:38:25;;;;;;;6.95;6.00;;;;;;;19.99;55.34;96864.09;10404570;28;20061;-48
2023/05/21 22:43:44;;;;;;;7.32;6.63;;;;;;;20.00;55.34;96868.41;10394223;28;20096;-48
2023/05/21 22:49:05;;;;;;;6.88;5.70;;;;;;;20.00;55.19;96861.06;10408661;28;20042;-49
2023/05/21 22:54:24;;;;;;;6.72;6.03;;;;;;;19.99;55.32;96858.69;10391412;28;20049;-50
2023/05/21 22:59:44;;;;;;;6.65;5.80;;;;;;;20.00;55.32;96858.38;10394172;28;20433;-48
2023/05/21 23:05:04;;;;;;;6.50;5.90;;;;;;;20.00;55.33;96860.28;10390999;28;20044;-49
2023/05/21 23:10:24;;;;;;;6.18;5.55;;;;;;;19.99;55.26;96864.88;10393620;28;20045;-48
2023/05/21 23:15:43;;;;;;;6.43;5.82;;;;;;;19.99;55.44;96850.56;10428192;28;20478;-49
2023/05/21 23:21:03;;;;;;;6.15;5.55;;;;;;;19.97;55.38;96845.47;10411595;28;20041;-48
2023/05/21 23:26:24;;;;;;;6.53;5.93;;;;;;;19.99;55.38;96834.34;10395265;28;20042;-49
2023/05/21 23:31:45;;;;;;;6.40;5.78;;;;;;;19.98;55.38;96840.88;10404505;28;20437;-48
2023/05/21 23:37:04;;;;;;;6.45;5.65;;;;;;;19.98;55.35;96838.19;10393003;28;20046;-50
2023/05/21 23:42:24;;;;;;;5.78;5.22;;;;;;;19.97;55.40;96833.88;10413701;28;20050;-48
2023/05/21 23:47:44;;;;;;;6.35;5.75;;;;;;;19.97;55.23;96831.19;10399311;28;20388;-49
2023/05/21 23:53:03;;;;;;;7.18;5.40;;;;;;;19.97;55.33;96831.19;10376816;28;20049;-49
2023/05/21 23:58:22;;;;;;;6.32;5.72;;;;;;;19.97;55.24;96823.06;10399793;28;20173;-48
